Time;durP1;ratioP1;P1;durP2;ratioP2;P2;SDS_P1;SDS_P2;PMS_P1;PMS_P2;Temp;Humidity;BMP_temperature;BMP_pressure;BME280_temperature;BME280_humidity;BME280_pressure;Samples;Min_cycle;Max_cycle;Signal;HPM_P1;HPM_P2
2021/03/16 00:01:04;;;;;;;4.20;3.80;;;5.50;71.90;;;;;;5035532;28;20049;-85
2021/03/16 00:03:31;;;;;;;3.83;3.40;;;5.50;71.70;;;;;;5047867;28;20040;-85
2021/03/16 00:05:57;;;;;;;5.20;3.40;;;5.50;71.70;;;;;;5051193;28;20480;-85
2021/03/16 00:08:23;;;;;;;4.27;3.10;;;5.50;71.70;;;;;;5041853;28;20112;-85
2021/03/16 00:10:48;;;;;;;6.47;3.37;;;5.60;71.60;;;;;;5039922;28;20129;-85
2021/03/16 00:13:14;;;;;;;5.73;3.53;;;5.50;71.40;;;;;;5041526;28;20065;-85
2021/03/16 00:15:40;;;;;;;5.90;3.70;;;5.50;71.60;;;;;;5041486;28;20034;-85
2021/03/16 00:18:09;;;;;;;4.67;3.73;;;5.50;71.50;;;;;;5034894;28;20025;-85
2021/03/16 00:20:35;;;;;;;5.60;2.90;;;5.50;71.70;;;;;;5035503;28;20056;-85
2021/03/16 00:23:01;;;;;;;4.13;3.23;;;5.40;71.50;;;;;;5037768;28;20060;-85
2021/03/16 00:25:26;;;;;;;3.63;2.97;;;5.50;71.70;;;;;;5037238;28;20476;-85
2021/03/16 00:27:52;;;;;;;4.17;2.83;;;5.50;71.80;;;;;;5047574;28;20033;-85
2021/03/16 00:30:18;;;;;;;3.70;2.57;;;5.60;72.10;;;;;;5043697;28;20116;-85
2021/03/16 00:32:44;;;;;;;5.40;3.10;;;5.70;72.30;;;;;;5051102;28;20388;-86
2021/03/16 00:35:10;;;;;;;3.80;2.57;;;5.80;71.30;;;;;;5045339;28;20538;-85
2021/03/16 00:37:36;;;;;;;3.40;3.10;;;5.70;71.50;;;;;;5034316;28;20078;-85
2021/03/16 00:40:02;;;;;;;2.60;2.00;;;5.70;71.50;;;;;;5043008;28;20022;-85
2021/03/16 00:42:28;;;;;;;2.37;2.03;;;5.80;71.40;;;;;;5042024;28;20014;-85
2021/03/16 00:44:54;;;;;;;3.10;1.73;;;5.80;71.20;;;;;;5046893;28;20021;-85
2021/03/16 00:47:20;;;;;;;3.23;1.50;;;5.80;71.20;;;;;;5045895;28;20025;-85
2021/03/16 00:49:45;;;;;;;3.27;1.90;;;5.80;71.30;;;;;;5048849;28;20068;-85
2021/03/16 00:52:11;;;;;;;2.67;2.00;;;5.80;70.90;;;;;;5038276;28;20049;-85
2021/03/16 00:54:37;;;;;;;2.40;2.20;;;5.80;70.80;;;;;;5046179;28;20383;-85
2021/03/16 00:57:03;;;;;;;2.50;1.60;;;5.80;70.90;;;;;;5048526;28;20022;-85
2021/03/16 00:59:29;;;;;;;3.03;2.20;;;5.70;70.90;;;;;;5045572;28;20023;-85
2021/03/16 01:01:54;;;;;;;6.63;3.40;;;5.70;70.80;;;;;;5043201;28;20554;-85
2021/03/16 01:04:20;;;;;;;5.70;4.33;;;5.70;71.00;;;;;;5040575;28;20029;-85
2021/03/16 01:06:46;;;;;;;39.33;5.67;;;5.60;71.30;;;;;;5042502;28;20026;-85
2021/03/16 01:09:12;;;;;;;4.67;3.83;;;5.70;71.30;;;;;;5043715;28;20548;-85
2021/03/16 01:11:38;;;;;;;5.20;3.87;;;5.60;71.30;;;;;;5039117;28;20057;-85
2021/03/16 01:14:06;;;;;;;4.43;3.37;;;5.60;71.20;;;;;;5036859;28;20029;-84
2021/03/16 01:16:32;;;;;;;3.77;3.20;;;5.50;71.50;;;;;;5037505;28;20575;-85
2021/03/16 01:18:58;;;;;;;3.90;2.63;;;5.50;71.70;;;;;;5034578;28;20496;-85
2021/03/16 01:21:24;;;;;;;4.33;3.27;;;5.50;71.50;;;;;;5043697;28;20113;-85
2021/03/16 01:23:49;;;;;;;3.80;2.83;;;5.40;71.60;;;;;;5037133;28;20357;-85
2021/03/16 01:26:15;;;;;;;3.47;2.43;;;5.40;71.60;;;;;;5045944;28;20037;-85
2021/03/16 01:28:41;;;;;;;2.57;2.20;;;5.40;72.40;;;;;;5035686;28;20708;-85
2021/03/16 01:31:07;;;;;;;3.93;2.90;;;5.60;72.20;;;;;;5043425;28;20037;-85
2021/03/16 01:33:32;;;;;;;4.60;3.07;;;5.70;71.50;;;;;;5041832;28;20072;-85
2021/03/16 01:35:58;;;;;;;4.77;2.63;;;5.60;71.10;;;;;;5037316;28;20064;-85
2021/03/16 01:38:24;;;;;;;1.67;1.33;;;5.50;71.50;;;;;;5039145;28;20048;-85
2021/03/16 01:40:50;;;;;;;2.50;1.40;;;5.70;72.30;;;;;;5037703;28;20025;-85
2021/03/16 01:43:25;;;;;;;1.13;0.87;;;5.80;71.80;;;;;;5042494;28;20030;-86
2021/03/16 01:45:51;;;;;;;1.27;1.00;;;6.00;71.30;;;;;;5040742;28;20099;-85
2021/03/16 01:48:32;;;;;;;1.17;0.90;;;6.10;70.40;;;;;;5045701;28;20033;-85
2021/03/16 01:51:00;;;;;;;1.20;0.90;;;5.90;70.20;;;;;;5046203;28;20033;-85
2021/03/16 01:53:26;;;;;;;3.37;1.43;;;5.80;70.90;;;;;;5049426;28;20032;-85
2021/03/16 01:55:54;;;;;;;0.77;0.67;;;5.70;71.00;;;;;;5056834;28;20040;-85
2021/03/16 01:58:20;;;;;;;1.33;0.93;;;5.70;70.90;;;;;;5046219;28;20053;-85
2021/03/16 02:00:45;;;;;;;1.50;1.03;;;5.70;70.80;;;;;;5042949;28;20025;-85
2021/03/16 02:03:12;;;;;;;2.50;1.60;;;5.70;70.80;;;;;;5044942;28;20025;-85
2021/03/16 02:05:39;;;;;;;1.97;1.60;;;5.60;70.70;;;;;;5050444;28;20078;-85
2021/03/16 02:08:21;;;;;;;2.20;1.63;;;5.60;71.00;;;;;;5047533;28;20030;-85
2021/03/16 02:11:03;;;;;;;1.60;1.00;;;5.60;71.20;;;;;;5050105;28;20068;-85
2021/03/16 02:14:09;;;;;;;3.35;1.80;;;5.60;71.10;;;;;;5049989;28;20033;-85
2021/03/16 02:16:39;;;;;;;1.77;1.40;;;5.60;71.20;;;;;;5043657;28;20485;-85
2021/03/16 02:19:17;;;;;;;1.70;1.30;;;5.50;70.90;;;;;;5044043;28;20028;-85
2021/03/16 02:21:44;;;;;;;1.40;1.17;;;5.40;71.00;;;;;;5054289;28;20024;-85
2021/03/16 02:24:36;;;;;;;1.30;0.97;;;5.40;71.30;;;;;;5050348;28;20025;-85
2021/03/16 02:27:13;;;;;;;1.10;0.97;;;5.40;71.60;;;;;;5022152;28;20025;-85
2021/03/16 02:29:47;;;;;;;3.50;0.93;;;5.50;71.20;;;;;;5040898;28;20037;-85
2021/03/16 02:32:20;;;;;;;1.50;1.07;;;5.60;71.90;;;;;;5044971;28;20041;-85
2021/03/16 02:34:51;;;;;;;0.80;0.70;;;5.60;71.30;;;;;;5044639;28;20049;-85
2021/03/16 02:37:18;;;;;;;2.60;1.20;;;5.60;71.40;;;;;;5046123;28;20392;-86
2021/03/16 02:39:45;;;;;;;2.00;1.40;;;5.60;71.30;;;;;;5038261;28;20556;-86
2021/03/16 02:42:13;;;;;;;0.70;0.53;;;5.50;71.20;;;;;;5045556;28;20025;-85
2021/03/16 02:44:39;;;;;;;0.77;0.37;;;5.40;71.50;;;;;;5045742;28;20590;-85
2021/03/16 02:47:06;;;;;;;1.17;0.80;;;5.40;71.70;;;;;;5038872;28;20025;-85
2021/03/16 02:49:39;;;;;;;0.93;0.43;;;5.40;71.70;;;;;;5044962;28;20476;-86
2021/03/16 02:52:05;;;;;;;0.98;0.70;;;5.50;71.60;;;;;;5046798;28;20056;-85
2021/03/16 02:54:33;;;;;;;1.27;0.53;;;5.50;71.40;;;;;;5038576;28;20377;-85
2021/03/16 02:57:00;;;;;;;1.20;0.60;;;5.40;71.50;;;;;;5048481;28;20048;-85
2021/03/16 02:59:27;;;;;;;1.20;0.73;;;5.50;71.50;;;;;;5046726;28;20036;-85
2021/03/16 03:01:56;;;;;;;2.70;0.57;;;5.40;71.60;;;;;;5041808;28;20510;-85
2021/03/16 03:04:23;;;;;;;1.40;0.80;;;5.50;71.70;;;;;;5044993;28;20033;-85
2021/03/16 03:06:50;;;;;;;2.70;1.20;;;5.50;71.40;;;;;;5041954;28;20043;-85
2021/03/16 03:09:16;;;;;;;0.87;0.70;;;5.50;71.50;;;;;;5041065;28;20030;-85
2021/03/16 03:11:42;;;;;;;0.93;0.70;;;5.50;71.50;;;;;;5046537;28;20036;-86
2021/03/16 03:14:09;;;;;;;1.03;0.93;;;5.40;71.50;;;;;;5046556;28;20033;-86
2021/03/16 03:16:35;;;;;;;1.30;1.00;;;5.50;71.70;;;;;;5045989;28;20029;-85
2021/03/16 03:19:00;;;;;;;1.43;1.10;;;5.40;71.50;;;;;;5045801;28;20036;-85
2021/03/16 03:21:45;;;;;;;2.33;1.33;;;5.40;71.60;;;;;;5044811;28;20032;-85
2021/03/16 03:24:15;;;;;;;1.97;1.10;;;5.40;71.70;;;;;;5047172;28;20032;-86
2021/03/16 03:27:05;;;;;;;1.60;1.20;;;5.40;71.80;;;;;;5045140;28;20426;-85
2021/03/16 03:29:32;;;;;;;1.30;0.80;;;5.40;71.90;;;;;;5042453;28;20068;-86
2021/03/16 03:31:59;;;;;;;0.90;0.70;;;5.50;71.90;;;;;;5054272;28;20033;-85
2021/03/16 03:34:26;;;;;;;1.57;1.10;;;5.50;71.70;;;;;;5052657;28;20049;-86
2021/03/16 03:36:55;;;;;;;3.33;1.50;;;5.50;71.70;;;;;;5051148;28;20056;-86
2021/03/16 03:39:22;;;;;;;1.33;1.00;;;5.40;71.50;;;;;;5041383;28;20120;-86
2021/03/16 03:41:50;;;;;;;1.00;0.80;;;5.30;71.90;;;;;;5039307;28;20021;-86
2021/03/16 03:44:18;;;;;;;0.70;0.60;;;5.40;72.20;;;;;;5046125;28;20552;-85
2021/03/16 03:46:45;;;;;;;0.47;0.40;;;5.50;72.50;;;;;;5047968;28;20031;-86
2021/03/16 03:49:12;;;;;;;0.83;0.33;;;5.70;71.80;;;;;;5035633;28;20025;-86
2021/03/16 03:51:39;;;;;;;1.60;0.80;;;5.70;71.60;;;;;;5044558;28;20033;-86
2021/03/16 03:54:06;;;;;;;1.20;0.30;;;6.00;71.50;;;;;;5041710;28;20095;-86
2021/03/16 03:56:34;;;;;;;0.90;0.40;;;6.20;70.80;;;;;;5040854;28;20029;-86
2021/03/16 03:59:02;;;;;;;0.67;0.40;;;6.10;70.10;;;;;;5042671;28;20480;-86
2021/03/16 04:01:30;;;;;;;0.90;0.40;;;6.00;70.60;;;;;;5041723;28;20033;-86
2021/03/16 04:03:57;;;;;;;1.00;0.40;;;6.20;71.10;;;;;;5047709;28;20026;-86
2021/03/16 04:06:27;;;;;;;0.40;0.23;;;6.20;69.60;;;;;;5035424;28;20056;-86
2021/03/16 04:08:54;;;;;;;1.60;0.57;;;6.10;69.80;;;;;;5041358;28;20120;-86
2021/03/16 04:11:25;;;;;;;0.70;0.37;;;6.00;70.10;;;;;;5044906;28;20041;-86
2021/03/16 04:13:52;;;;;;;1.97;0.70;;;6.00;70.10;;;;;;5047943;28;20029;-85
2021/03/16 04:16:21;;;;;;;1.30;0.60;;;5.80;70.00;;;;;;5046970;28;20079;-85
2021/03/16 04:18:48;;;;;;;2.23;0.40;;;5.80;70.20;;;;;;5049510;28;20036;-85
2021/03/16 04:21:15;;;;;;;1.03;0.40;;;6.00;71.30;;;;;;5054967;28;20033;-85
2021/03/16 04:23:42;;;;;;;2.67;0.80;;;6.20;69.60;;;;;;5045664;28;20029;-85
2021/03/16 04:26:08;;;;;;;0.33;0.23;;;6.10;69.30;;;;;;5045674;28;20025;-85
2021/03/16 04:28:34;;;;;;;5.50;0.83;;;6.00;70.10;;;;;;5038526;28;20029;-86
2021/03/16 04:31:00;;;;;;;0.93;0.50;;;6.10;69.80;;;;;;5038693;28;20041;-86
2021/03/16 04:33:26;;;;;;;0.97;0.60;;;6.10;70.30;;;;;;5042866;28;20052;-85
2021/03/16 04:35:52;;;;;;;1.10;0.50;;;6.20;69.60;;;;;;5050850;28;20056;-86
2021/03/16 04:38:18;;;;;;;2.17;0.73;;;6.10;69.70;;;;;;5040801;28;20268;-86
2021/03/16 04:40:44;;;;;;;2.10;0.80;;;6.10;69.50;;;;;;5042081;28;20158;-85
2021/03/16 04:43:10;;;;;;;2.47;1.23;;;5.80;69.10;;;;;;5035266;28;20029;-85
2021/03/16 04:45:37;;;;;;;3.30;1.70;;;5.70;70.50;;;;;;5043988;28;20064;-85
2021/03/16 04:48:03;;;;;;;3.50;1.60;;;6.20;70.80;;;;;;5044755;28;20476;-85
2021/03/16 04:50:29;;;;;;;3.33;1.70;;;6.40;69.10;;;;;;5034927;28;20108;-85
2021/03/16 04:52:55;;;;;;;1.80;1.20;;;6.30;68.50;;;;;;5039866;28;20472;-85
2021/03/16 04:55:21;;;;;;;1.83;1.00;;;6.10;68.80;;;;;;5037293;28;20033;-86
2021/03/16 04:57:47;;;;;;;2.97;1.13;;;5.90;69.20;;;;;;5050128;28;20129;-86
2021/03/16 05:00:14;;;;;;;2.10;1.10;;;5.80;69.60;;;;;;5038011;28;20887;-86
2021/03/16 05:02:39;;;;;;;2.80;1.40;;;5.70;70.00;;;;;;5041849;28;20033;-86
2021/03/16 05:05:06;;;;;;;3.10;1.30;;;5.70;70.10;;;;;;5038032;28;20476;-86
2021/03/16 05:07:32;;;;;;;5.30;1.40;;;5.60;70.40;;;;;;5042276;28;20025;-86
2021/03/16 05:09:59;;;;;;;7.23;2.73;;;5.70;70.50;;;;;;5039129;28;20124;-86
2021/03/16 05:12:25;;;;;;;4.63;2.03;;;5.70;70.60;;;;;;5039901;28;20429;-86
2021/03/16 05:14:51;;;;;;;3.57;2.10;;;5.80;70.30;;;;;;5036525;28;20037;-86
2021/03/16 05:17:16;;;;;;;2.23;1.53;;;5.90;70.30;;;;;;5043383;28;20450;-85
2021/03/16 05:19:42;;;;;;;2.37;1.43;;;6.00;70.00;;;;;;5043783;28;20021;-86
2021/03/16 05:22:08;;;;;;;4.53;1.10;;;6.40;70.90;;;;;;5040190;28;20021;-85
2021/03/16 05:24:34;;;;;;;2.07;1.33;;;6.80;68.30;;;;;;5041447;28;20384;-85
2021/03/16 05:26:59;;;;;;;3.47;1.10;;;6.50;66.60;;;;;;5038166;28;20433;-85
2021/03/16 05:29:25;;;;;;;2.57;1.00;;;6.20;68.10;;;;;;5044890;28;20472;-85
2021/03/16 05:31:51;;;;;;;2.33;1.20;;;6.40;68.30;;;;;;5056124;28;20150;-86
2021/03/16 05:34:17;;;;;;;9.07;3.80;;;6.50;68.10;;;;;;5057368;28;20134;-86
2021/03/16 05:36:43;;;;;;;6.50;2.90;;;6.90;67.50;;;;;;5039588;28;20469;-86
2021/03/16 05:39:09;;;;;;;3.73;1.80;;;7.10;66.10;;;;;;5049519;28;20029;-85
2021/03/16 05:41:40;;;;;;;2.83;1.00;;;7.10;65.80;;;;;;5043117;28;20033;-85
2021/03/16 05:44:07;;;;;;;2.70;1.00;;;6.90;65.50;;;;;;5046549;28;20240;-86
2021/03/16 05:46:36;;;;;;;3.63;0.97;;;6.70;66.00;;;;;;5037477;28;20071;-86
2021/03/16 05:49:05;;;;;;;1.40;0.80;;;6.40;66.10;;;;;;5047234;28;20027;-85
2021/03/16 05:51:36;;;;;;;2.27;0.90;;;6.20;66.60;;;;;;5043052;28;20028;-86
2021/03/16 05:54:04;;;;;;;1.97;0.97;;;6.10;67.10;;;;;;5044301;28;20021;-85
2021/03/16 05:56:34;;;;;;;1.30;1.10;;;5.90;67.60;;;;;;5052942;28;20529;-85
2021/03/16 05:59:04;;;;;;;2.63;1.27;;;5.90;68.00;;;;;;5044483;28;20113;-85
2021/03/16 06:01:30;;;;;;;2.90;1.17;;;5.90;68.10;;;;;;5046681;28;20158;-85
2021/03/16 06:03:55;;;;;;;1.87;1.10;;;5.90;68.90;;;;;;5052170;28;20055;-85
2021/03/16 06:06:21;;;;;;;1.03;0.70;;;6.00;68.30;;;;;;5050194;28;20530;-85
2021/03/16 06:08:47;;;;;;;2.20;0.80;;;6.10;68.20;;;;;;5046456;28;20550;-86
2021/03/16 06:11:13;;;;;;;2.53;1.57;;;6.20;68.50;;;;;;5045106;28;20052;-85
2021/03/16 06:13:51;;;;;;;2.80;1.40;;;6.30;68.00;;;;;;5044705;28;20052;-86
2021/03/16 06:16:17;;;;;;;1.67;0.90;;;6.20;67.90;;;;;;5051617;28;20029;-85
2021/03/16 06:18:45;;;;;;;2.50;1.90;;;6.10;67.80;;;;;;5041192;28;20025;-85
2021/03/16 06:21:16;;;;;;;7.73;4.30;;;6.00;67.90;;;;;;5048839;28;20030;-86
2021/03/16 06:23:57;;;;;;;2.50;1.50;;;6.00;68.20;;;;;;5049489;28;20055;-85
2021/03/16 06:26:25;;;;;;;2.23;0.90;;;5.80;68.00;;;;;;5055546;28;20464;-85
2021/03/16 06:28:51;;;;;;;5.33;1.10;;;5.80;68.50;;;;;;5029652;28;20045;-85
2021/03/16 06:31:24;;;;;;;2.53;1.13;;;5.80;68.20;;;;;;5042813;28;20032;-85
2021/03/16 06:33:50;;;;;;;2.13;1.00;;;5.70;68.50;;;;;;5041977;28;20052;-85
2021/03/16 06:36:16;;;;;;;9.17;3.97;;;5.60;69.30;;;;;;5036485;28;20376;-85
2021/03/16 06:38:42;;;;;;;3.97;1.73;;;5.60;68.90;;;;;;5049814;28;20025;-85
2021/03/16 06:41:11;;;;;;;6.63;2.17;;;5.60;69.20;;;;;;5037591;28;20025;-85
2021/03/16 06:43:37;;;;;;;3.87;2.10;;;5.60;69.30;;;;;;5046335;28;20022;-85
2021/03/16 06:46:03;;;;;;;2.60;1.47;;;5.50;69.30;;;;;;5045398;28;20073;-85
2021/03/16 06:48:34;;;;;;;3.97;1.83;;;5.50;69.30;;;;;;5049311;28;20020;-86
2021/03/16 06:51:09;;;;;;;14.60;5.97;;;5.40;69.20;;;;;;5043034;28;20029;-85
2021/03/16 06:53:35;;;;;;;4.00;1.70;;;5.40;69.40;;;;;;5039230;28;20033;-85
2021/03/16 06:56:01;;;;;;;4.80;1.20;;;5.30;69.20;;;;;;5041278;28;20403;-86
2021/03/16 06:58:32;;;;;;;18.93;6.83;;;5.20;69.30;;;;;;5035491;28;20041;-85
2021/03/16 07:01:05;;;;;;;24.20;9.50;;;5.20;69.80;;;;;;5040604;28;20025;-85
2021/03/16 07:03:31;;;;;;;7.40;2.50;;;5.30;70.20;;;;;;5035749;28;20032;-85
2021/03/16 07:06:14;;;;;;;5.23;2.07;;;5.40;70.00;;;;;;5045838;28;20087;-85
2021/03/16 07:08:41;;;;;;;6.18;1.55;;;5.50;69.30;;;;;;5042871;28;21042;-85
2021/03/16 07:11:10;;;;;;;7.50;2.90;;;5.50;69.30;;;;;;5043625;28;20495;-85
2021/03/16 07:13:36;;;;;;;11.40;5.30;;;5.40;69.30;;;;;;5041457;28;20373;-85
2021/03/16 07:16:02;;;;;;;30.27;13.13;;;5.40;69.00;;;;;;5044001;28;20268;-85
2021/03/16 07:18:32;;;;;;;20.37;7.70;;;5.30;69.30;;;;;;5041467;28;20022;-85
2021/03/16 07:21:03;;;;;;;17.10;5.67;;;5.50;69.80;;;;;;5036943;28;20026;-85
2021/03/16 07:23:32;;;;;;;12.80;5.27;;;5.60;69.70;;;;;;5048565;28;20040;-85
2021/03/16 07:25:58;;;;;;;4.87;2.47;;;6.00;69.50;;;;;;5041504;28;20049;-85
2021/03/16 07:28:26;;;;;;;8.50;3.33;;;6.00;68.60;;;;;;5050982;28;20025;-85
2021/03/16 07:30:52;;;;;;;11.97;6.77;;;6.00;68.60;;;;;;5039680;28;20021;-85
2021/03/16 07:33:18;;;;;;;13.33;5.10;;;5.80;68.80;;;;;;5043521;28;20064;-86
2021/03/16 07:35:45;;;;;;;10.67;3.93;;;5.70;69.20;;;;;;5043749;28;20053;-85
2021/03/16 07:38:12;;;;;;;6.63;3.23;;;5.70;69.40;;;;;;5041853;28;20037;-85
2021/03/16 07:40:40;;;;;;;8.30;4.10;;;6.00;70.10;;;;;;5037888;28;20033;-85
2021/03/16 07:43:10;;;;;;;4.47;2.57;;;6.30;68.50;;;;;;5040078;28;20036;-85
2021/03/16 07:45:37;;;;;;;7.13;3.87;;;6.10;68.30;;;;;;5044184;28;20642;-85
2021/03/16 07:48:17;;;;;;;4.67;2.57;;;6.40;68.80;;;;;;5042849;28;20043;-85
2021/03/16 07:50:44;;;;;;;4.97;2.47;;;6.60;67.60;;;;;;5049451;28;20418;-85
2021/03/16 07:53:10;;;;;;;3.30;1.40;;;6.50;67.20;;;;;;5049090;28;20434;-85
2021/03/16 07:55:36;;;;;;;4.80;1.47;;;6.30;67.20;;;;;;5040005;28;20033;-85
2021/03/16 07:58:10;;;;;;;3.33;1.73;;;6.20;67.80;;;;;;5046871;28;20040;-85
2021/03/16 08:00:36;;;;;;;3.53;2.00;;;6.20;67.90;;;;;;5047977;28;20044;-85
2021/03/16 08:03:06;;;;;;;4.17;1.60;;;6.30;67.90;;;;;;5038534;28;20018;-85
2021/03/16 08:05:45;;;;;;;6.67;1.40;;;6.40;67.90;;;;;;5038548;28;20480;-85
2021/03/16 08:08:18;;;;;;;4.00;2.00;;;6.30;67.60;;;;;;5052800;28;20119;-85
2021/03/16 08:10:44;;;;;;;4.53;2.10;;;6.20;67.70;;;;;;5039255;28;20032;-85
2021/03/16 08:13:18;;;;;;;7.20;2.53;;;6.30;68.10;;;;;;5049483;28;20033;-85
2021/03/16 08:15:45;;;;;;;5.07;2.80;;;6.50;67.90;;;;;;5039462;28;20513;-85
2021/03/16 08:18:13;;;;;;;2.13;1.10;;;6.60;67.70;;;;;;5044882;28;20496;-85
2021/03/16 08:20:40;;;;;;;1.90;0.77;;;6.50;67.00;;;;;;5039101;28;20018;-85
2021/03/16 08:23:08;;;;;;;1.77;0.90;;;6.30;66.90;;;;;;5045896;28;20033;-85
2021/03/16 08:25:34;;;;;;;2.93;0.90;;;6.30;67.00;;;;;;5043252;28;20043;-85
2021/03/16 08:28:10;;;;;;;4.47;1.10;;;6.20;66.80;;;;;;5037253;28;20036;-85
2021/03/16 08:30:37;;;;;;;3.27;1.47;;;6.10;67.10;;;;;;5049257;28;20029;-85
2021/03/16 08:33:11;;;;;;;6.07;1.00;;;6.10;67.40;;;;;;5049203;28;20116;-85
2021/03/16 08:35:40;;;;;;;4.70;1.63;;;6.10;67.50;;;;;;5043058;28;20049;-85
2021/03/16 08:38:07;;;;;;;6.23;1.87;;;6.00;67.30;;;;;;5048414;28;20016;-85
2021/03/16 08:40:33;;;;;;;5.67;1.87;;;6.00;67.80;;;;;;5037576;28;20173;-85
2021/03/16 08:43:09;;;;;;;2.97;1.50;;;6.10;68.20;;;;;;5045046;28;20085;-85
2021/03/16 08:45:35;;;;;;;1.70;1.17;;;6.30;66.90;;;;;;5039508;28;20072;-85
2021/03/16 08:48:01;;;;;;;3.43;0.70;;;6.00;66.90;;;;;;5046532;28;20033;-85
2021/03/16 08:50:27;;;;;;;1.67;0.97;;;5.90;67.50;;;;;;5042802;28;20041;-85
2021/03/16 08:52:53;;;;;;;4.53;2.00;;;5.60;67.80;;;;;;5044316;28;20026;-85
2021/03/16 08:55:37;;;;;;;1.80;0.90;;;5.50;68.20;;;;;;5049321;28;20052;-85
2021/03/16 08:58:09;;;;;;;4.93;3.00;;;5.40;68.90;;;;;;5036863;28;20030;-85
2021/03/16 09:00:38;;;;;;;6.10;2.80;;;5.30;69.00;;;;;;5050039;28;20028;-86
2021/03/16 09:03:04;;;;;;;2.17;1.40;;;5.40;69.40;;;;;;5050535;28;20017;-85
2021/03/16 09:05:30;;;;;;;34.00;13.67;;;5.40;69.40;;;;;;5037820;28;20025;-85
2021/03/16 09:08:00;;;;;;;24.53;9.97;;;5.40;69.70;;;;;;5044642;28;20025;-85
2021/03/16 09:10:27;;;;;;;7.40;3.90;;;5.50;69.40;;;;;;5042453;28;20045;-85
2021/03/16 09:12:53;;;;;;;5.40;2.93;;;5.80;68.90;;;;;;5037975;28;20025;-85
2021/03/16 09:15:21;;;;;;;4.60;1.40;;;5.80;68.70;;;;;;5050838;28;20029;-85
2021/03/16 09:17:53;;;;;;;2.60;2.00;;;5.90;68.40;;;;;;5039669;28;20029;-85
2021/03/16 09:20:28;;;;;;;3.03;1.65;;;5.90;68.60;;;;;;5047417;28;20477;-85
2021/03/16 09:22:59;;;;;;;1.00;0.80;;;6.00;68.60;;;;;;5036474;28;20026;-85
2021/03/16 09:25:33;;;;;;;1.00;0.53;;;6.00;68.40;;;;;;5041958;28;20160;-85
2021/03/16 09:28:02;;;;;;;2.33;1.20;;;5.90;68.20;;;;;;5044123;28;20361;-85
2021/03/16 09:30:37;;;;;;;2.87;1.17;;;6.00;68.00;;;;;;5034402;28;20112;-85
2021/03/16 09:33:05;;;;;;;3.77;1.33;;;5.90;68.00;;;;;;5043062;28;20025;-85
2021/03/16 09:35:32;;;;;;;3.10;1.17;;;6.00;68.20;;;;;;5042111;28;20045;-85
2021/03/16 09:37:57;;;;;;;1.43;1.10;;;6.10;68.20;;;;;;5037852;28;20488;-85
2021/03/16 09:40:38;;;;;;;1.37;1.07;;;6.10;68.00;;;;;;5037930;28;20028;-85
2021/03/16 09:43:18;;;;;;;1.87;1.30;;;6.20;68.50;;;;;;5043076;28;20037;-85
2021/03/16 09:45:54;;;;;;;3.50;1.80;;;6.30;68.30;;;;;;5038363;28;20202;-85
2021/03/16 09:48:21;;;;;;;2.47;1.73;;;6.40;68.30;;;;;;5045789;28;20025;-85
2021/03/16 09:50:48;;;;;;;2.83;1.40;;;6.40;68.20;;;;;;5038581;28;20033;-85
2021/03/16 09:53:16;;;;;;;1.83;1.10;;;6.40;68.20;;;;;;5041633;28;20404;-85
2021/03/16 09:55:43;;;;;;;1.70;0.87;;;6.30;68.30;;;;;;5037081;28;20030;-85
2021/03/16 09:58:22;;;;;;;3.20;1.00;;;6.30;68.30;;;;;;5053941;28;20032;-85
2021/03/16 10:00:49;;;;;;;2.97;1.77;;;6.20;68.10;;;;;;5035471;28;20033;-85
2021/03/16 10:03:17;;;;;;;6.17;1.20;;;6.20;68.00;;;;;;5041742;28;20030;-85
2021/03/16 10:05:43;;;;;;;3.33;1.73;;;6.30;68.00;;;;;;5045030;28;20361;-85
2021/03/16 10:08:25;;;;;;;4.23;2.47;;;6.30;68.00;;;;;;5038985;28;20379;-85
2021/03/16 10:10:52;;;;;;;3.05;1.40;;;6.40;67.80;;;;;;5038961;28;20026;-85
2021/03/16 10:13:39;;;;;;;5.23;2.10;;;6.50;67.80;;;;;;5035143;28;20044;-85
2021/03/16 10:16:13;;;;;;;4.30;2.40;;;6.60;67.50;;;;;;5039045;28;20025;-85
2021/03/16 10:18:41;;;;;;;4.20;1.90;;;6.70;67.60;;;;;;5043005;28;20025;-85
2021/03/16 10:21:07;;;;;;;3.27;1.33;;;6.80;67.50;;;;;;5039491;28;20033;-85
2021/03/16 10:23:33;;;;;;;4.00;2.20;;;6.80;67.50;;;;;;5060507;28;20029;-85
2021/03/16 10:26:05;;;;;;;4.50;1.80;;;6.80;67.30;;;;;;5052041;28;20024;-85
2021/03/16 10:28:36;;;;;;;2.65;1.45;;;6.90;67.40;;;;;;5042330;28;20124;-85
2021/03/16 10:31:13;;;;;;;1.70;1.03;;;6.90;67.10;;;;;;5055166;28;20049;-85
2021/03/16 10:33:39;;;;;;;2.63;1.30;;;6.80;66.30;;;;;;5045905;28;20051;-85
2021/03/16 10:36:07;;;;;;;2.97;1.80;;;7.00;66.90;;;;;;5046762;28;20025;-85
2021/03/16 10:38:33;;;;;;;4.17;2.53;;;7.20;65.90;;;;;;5040337;28;20052;-85
2021/03/16 10:40:58;;;;;;;6.00;2.70;;;7.30;65.90;;;;;;5045783;28;20017;-85
2021/03/16 10:43:24;;;;;;;3.10;1.60;;;7.30;65.80;;;;;;5041406;28;20484;-85
2021/03/16 10:45:56;;;;;;;2.87;1.63;;;7.30;65.50;;;;;;5042459;28;20028;-85
2021/03/16 10:48:23;;;;;;;3.50;1.50;;;7.20;65.60;;;;;;5042235;28;20029;-85
2021/03/16 10:50:49;;;;;;;1.80;0.83;;;7.10;65.90;;;;;;5044619;28;20029;-85
2021/03/16 10:53:15;;;;;;;3.30;1.00;;;6.90;65.90;;;;;;5044226;28;20507;-86
2021/03/16 10:55:42;;;;;;;6.43;2.73;;;6.80;66.30;;;;;;5056636;28;20032;-85
2021/03/16 10:58:08;;;;;;;1.30;0.63;;;6.80;66.20;;;;;;5052485;28;20369;-86
2021/03/16 11:00:33;;;;;;;2.57;1.17;;;6.80;66.10;;;;;;5046268;28;20533;-85
2021/03/16 11:02:59;;;;;;;3.20;0.97;;;6.70;66.20;;;;;;5045124;28;20041;-85
2021/03/16 11:05:25;;;;;;;3.07;0.70;;;6.80;66.30;;;;;;5049143;28;20057;-85
2021/03/16 11:07:51;;;;;;;3.30;1.00;;;6.60;65.80;;;;;;5045575;28;20417;-85
2021/03/16 11:10:17;;;;;;;4.70;2.03;;;6.50;66.70;;;;;;5046390;28;20029;-85
2021/03/16 11:12:43;;;;;;;3.10;1.10;;;6.50;66.60;;;;;;5045969;28;20092;-85
2021/03/16 11:15:09;;;;;;;4.20;0.70;;;6.60;66.80;;;;;;5051204;28;20392;-85
2021/03/16 11:17:35;;;;;;;2.23;0.90;;;6.60;66.30;;;;;;5042379;28;20026;-85
2021/03/16 11:20:01;;;;;;;2.20;0.83;;;6.30;66.40;;;;;;5053831;28;20475;-85
2021/03/16 11:22:26;;;;;;;2.47;0.80;;;6.20;66.80;;;;;;5056365;28;20065;-85
2021/03/16 11:24:52;;;;;;;4.10;1.90;;;6.30;67.50;;;;;;5051101;28;20041;-85
2021/03/16 11:27:18;;;;;;;2.00;1.10;;;6.30;67.30;;;;;;5055195;28;20036;-85
2021/03/16 11:29:43;;;;;;;2.37;0.60;;;6.30;67.00;;;;;;5050851;28;20063;-85
2021/03/16 11:32:09;;;;;;;2.50;0.70;;;6.10;67.20;;;;;;5041150;28;20083;-85
2021/03/16 11:34:35;;;;;;;0.70;0.50;;;6.20;68.10;;;;;;5042083;28;20524;-85
2021/03/16 11:37:00;;;;;;;3.47;1.87;;;6.40;67.50;;;;;;5056411;28;20124;-85
2021/03/16 11:39:26;;;;;;;2.67;1.27;;;6.50;67.10;;;;;;5058335;28;20053;-85
2021/03/16 11:41:52;;;;;;;2.47;1.30;;;6.50;67.20;;;;;;5049582;28;20049;-85
2021/03/16 11:44:18;;;;;;;2.00;0.77;;;6.80;67.30;;;;;;5042051;28;20025;-85
2021/03/16 11:46:43;;;;;;;2.17;0.60;;;6.80;66.60;;;;;;5041173;28;20033;-85
2021/03/16 11:49:09;;;;;;;1.50;0.53;;;6.70;66.50;;;;;;5042349;28;20029;-85
2021/03/16 11:51:35;;;;;;;1.10;0.70;;;6.90;66.60;;;;;;5049215;28;20072;-85
2021/03/16 11:54:01;;;;;;;2.97;1.17;;;6.80;66.70;;;;;;5049048;28;20021;-85
2021/03/16 11:56:27;;;;;;;1.50;1.00;;;6.80;66.60;;;;;;5048490;28;20029;-85
2021/03/16 11:58:52;;;;;;;3.33;1.00;;;6.70;66.80;;;;;;5044593;28;20055;-85
2021/03/16 12:01:18;;;;;;;1.20;0.80;;;6.70;67.00;;;;;;5053792;28;20029;-85
2021/03/16 12:03:44;;;;;;;2.40;0.97;;;6.60;66.90;;;;;;5041817;28;20028;-84
2021/03/16 12:06:10;;;;;;;1.30;0.80;;;6.60;67.00;;;;;;5046840;28;20021;-85
2021/03/16 12:08:36;;;;;;;4.50;1.70;;;6.50;67.10;;;;;;5049104;28;20483;-85
2021/03/16 12:11:03;;;;;;;3.53;1.90;;;6.60;67.40;;;;;;5052430;28;20023;-85
2021/03/16 12:13:29;;;;;;;2.27;1.40;;;6.60;67.50;;;;;;5045012;28;20032;-85
2021/03/16 12:15:55;;;;;;;2.80;1.63;;;6.60;67.50;;;;;;5045840;28;20029;-85
2021/03/16 12:18:23;;;;;;;2.40;1.43;;;6.70;67.50;;;;;;5047297;28;20040;-85
2021/03/16 12:20:50;;;;;;;4.37;2.20;;;6.70;67.40;;;;;;5047794;28;20083;-85
2021/03/16 12:23:17;;;;;;;2.97;1.50;;;6.60;67.40;;;;;;5051310;28;20040;-85
2021/03/16 12:25:43;;;;;;;4.10;2.27;;;6.60;67.50;;;;;;5054341;28;20029;-85
2021/03/16 12:28:09;;;;;;;10.03;4.40;;;6.50;67.60;;;;;;5054668;28;20784;-85
2021/03/16 12:30:36;;;;;;;6.63;3.90;;;6.60;67.90;;;;;;5043472;28;20033;-85
2021/03/16 12:33:02;;;;;;;8.10;4.10;;;6.70;67.70;;;;;;5050583;28;20038;-85
2021/03/16 12:35:28;;;;;;;20.23;10.73;;;6.90;67.80;;;;;;5045678;28;20053;-85
2021/03/16 12:37:54;;;;;;;12.10;7.17;;;7.10;67.70;;;;;;5042515;28;20030;-85
2021/03/16 12:40:20;;;;;;;8.47;5.03;;;7.20;67.40;;;;;;5042283;28;20096;-85
2021/03/16 12:42:45;;;;;;;3.93;1.77;;;7.20;67.20;;;;;;5044644;28;20030;-85
2021/03/16 12:45:12;;;;;;;2.40;1.03;;;7.20;66.60;;;;;;5053142;28;20036;-85
2021/03/16 12:47:37;;;;;;;2.20;0.80;;;7.30;66.80;;;;;;5046074;28;20033;-85
2021/03/16 12:50:05;;;;;;;1.13;0.60;;;7.30;66.40;;;;;;5038970;28;20029;-85
2021/03/16 12:52:31;;;;;;;4.43;2.07;;;7.20;66.00;;;;;;5041815;28;20075;-85
2021/03/16 12:54:57;;;;;;;5.00;2.33;;;7.10;66.20;;;;;;5044007;28;20412;-85
2021/03/16 12:57:22;;;;;;;6.50;2.30;;;7.00;65.90;;;;;;5050355;28;20033;-84
2021/03/16 12:59:48;;;;;;;4.83;2.10;;;6.90;66.10;;;;;;5044786;28;20029;-84